Time;durP1;ratioP1;P1;durP2;ratioP2;P2;SDS_P1;SDS_P2;PMS_P1;PMS_P2;Temp;Humidity;BMP_temperature;BMP_pressure;BME280_temperature;BME280_humidity;BME280_pressure;Samples;Min_cycle;Max_cycle;Signal;HPM_P1;HPM_P2
2021/06/04 00:00:33;;;;;;;11.03;6.17;;;;;;;12.32;76.76;95266.79;1682896;85;20894;-60
2021/06/04 00:03:04;;;;;;;22.48;7.72;;;;;;;12.32;76.96;95266.00;1682977;85;20970;-60
2021/06/04 00:05:36;;;;;;;28.23;7.72;;;;;;;12.34;76.91;95267.11;1682681;85;21418;-60
2021/06/04 00:08:04;;;;;;;21.45;6.85;;;;;;;12.33;76.86;95266.95;1682986;85;21419;-60
2021/06/04 00:10:39;;;;;;;14.78;6.42;;;;;;;12.34;76.92;95268.48;1682861;85;21152;-59
2021/06/04 00:13:17;;;;;;;9.33;5.35;;;;;;;12.36;76.78;95264.67;1682828;85;21105;-59
2021/06/04 00:15:45;;;;;;;10.25;5.08;;;;;;;12.36;76.75;95272.95;1682900;85;21017;-61
2021/06/04 00:18:12;;;;;;;11.68;5.08;;;;;;;12.33;76.65;95267.55;1682875;85;20982;-60
2021/06/04 00:20:39;;;;;;;11.35;5.12;;;;;;;12.33;76.63;95265.56;1683036;85;20966;-60
2021/06/04 00:23:07;;;;;;;12.73;6.42;;;;;;;12.32;76.64;95266.79;1682509;85;21142;-60
2021/06/04 00:25:36;;;;;;;16.35;6.25;;;;;;;12.32;76.61;95265.41;1682905;85;21481;-60
2021/06/04 00:28:05;;;;;;;9.08;7.00;;;;;;;12.30;76.67;95262.30;1682886;84;20986;-60
2021/06/04 00:30:31;;;;;;;14.80;6.05;;;;;;;12.26;76.62;95271.93;1683286;85;20995;-60
2021/06/04 00:32:58;;;;;;;12.15;7.08;;;;;;;12.22;76.96;95265.14;1682877;85;20962;-60
2021/06/04 00:35:25;;;;;;;10.23;7.37;;;;;;;12.21;77.11;95262.22;1682860;85;22391;-60
2021/06/04 00:37:52;;;;;;;14.13;8.13;;;;;;;12.19;77.09;95256.38;1682914;85;20958;-60
2021/06/04 00:40:25;;;;;;;12.07;7.58;;;;;;;12.16;77.41;95268.31;1682926;85;21040;-60
2021/06/04 00:42:52;;;;;;;12.65;7.28;;;;;;;12.15;77.59;95262.63;1683082;84;21624;-59
2021/06/04 00:45:26;;;;;;;11.60;7.35;;;;;;;12.18;77.52;95263.11;1683073;85;20927;-60
2021/06/04 00:47:53;;;;;;;11.80;7.87;;;;;;;12.20;77.66;95266.80;1682915;83;21114;-59
2021/06/04 00:50:28;;;;;;;8.15;6.05;;;;;;;12.18;77.66;95261.73;1683266;85;21010;-60
2021/06/04 00:52:55;;;;;;;9.88;6.28;;;;;;;12.18;77.77;95263.11;1656658;85;21017;-60
2021/06/04 00:55:23;;;;;;;9.38;5.70;;;;;;;12.15;77.85;95257.70;1683171;85;20954;-59
2021/06/04 00:57:52;;;;;;;14.78;6.05;;;;;;;12.16;78.05;95257.87;1683189;85;20982;-59
2021/06/04 01:00:30;;;;;;;8.23;5.75;;;;;;;12.19;77.87;95255.00;1682925;84;21196;-60
2021/06/04 01:02:58;;;;;;;8.43;6.17;;;;;;;12.23;77.79;95263.17;1685190;85;20963;-60
2021/06/04 01:05:27;;;;;;;7.35;6.00;;;;;;;12.21;77.78;95258.08;1682979;85;20993;-60
2021/06/04 01:08:27;;;;;;;5.60;5.10;;;;;;;12.22;77.84;95254.70;1683002;85;21549;-60
2021/06/04 01:11:31;;;;;;;8.08;5.25;;;;;;;12.23;77.78;95255.65;1683078;85;20974;-60
2021/06/04 01:14:26;;;;;;;11.48;5.92;;;;;;;12.22;77.49;95254.11;1682818;85;21121;-60
2021/06/04 01:17:04;;;;;;;10.38;6.75;;;;;;;12.21;77.39;95251.19;1682991;85;21033;-61
2021/06/04 01:19:46;;;;;;;11.12;7.83;;;;;;;12.20;77.30;95253.78;1683068;85;21057;-59
2021/06/04 01:22:47;;;;;;;8.60;6.30;;;;;;;12.20;77.29;95249.64;1682982;84;21490;-60
2021/06/04 01:25:45;;;;;;;11.48;6.95;;;;;;;12.22;77.48;95255.48;1682958;85;21582;-60
2021/06/04 01:28:31;;;;;;;12.35;8.15;;;;;;;12.21;77.33;95252.56;1683016;84;21482;-61
2021/06/04 01:31:08;;;;;;;10.72;7.58;;;;;;;12.16;77.44;95250.97;1683028;85;21006;-60
2021/06/04 01:33:57;;;;;;;18.07;8.53;;;;;;;12.15;77.41;95252.98;1682308;84;21049;-60
2021/06/04 01:36:31;;;;;;;15.30;8.03;;;;;;;12.18;77.30;95254.05;1683005;85;20974;-60
2021/06/04 01:39:03;;;;;;;12.90;7.60;;;;;;;12.19;77.40;95256.38;1682999;84;20998;-60
2021/06/04 01:41:33;;;;;;;14.60;8.18;;;;;;;12.18;77.44;95255.44;1683045;85;20989;-60
2021/06/04 01:44:13;;;;;;;16.05;7.90;;;;;;;12.20;77.67;95255.16;1664315;85;21415;-60
2021/06/04 01:46:44;;;;;;;11.18;7.00;;;;;;;12.22;77.64;95252.73;1683079;85;20974;-60
2021/06/04 01:49:21;;;;;;;9.68;7.00;;;;;;;12.16;77.68;95261.41;1664069;85;20979;-59
2021/06/04 01:52:06;;;;;;;22.02;8.25;;;;;;;12.15;77.93;95255.73;1684509;84;21001;-60
2021/06/04 01:54:47;;;;;;;27.48;9.55;;;;;;;12.16;77.81;95258.66;1690400;84;21094;-60
2021/06/04 01:57:19;;;;;;;25.68;10.03;;;;;;;12.14;77.96;95269.36;1690433;84;21045;-59
2021/06/04 01:59:49;;;;;;;13.65;9.33;;;;;;;12.08;78.32;95262.09;1691288;84;21009;-61
2021/06/04 02:02:17;;;;;;;14.28;9.45;;;;;;;12.01;78.50;95262.30;1689924;84;21001;-60
2021/06/04 02:04:50;;;;;;;14.93;8.38;;;;;;;11.96;78.80;95263.66;1691236;84;21057;-60
2021/06/04 02:07:27;;;;;;;20.32;9.18;;;;;;;11.97;78.93;95261.06;1691343;83;21136;-60
2021/06/04 02:09:55;;;;;;;16.17;9.83;;;;;;;11.97;79.21;95267.17;1690553;84;20993;-60
2021/06/04 02:12:24;;;;;;;13.88;10.08;;;;;;;11.98;79.16;95265.36;1690767;83;21088;-60
2021/06/04 02:15:03;;;;;;;11.38;7.95;;;;;;;12.00;79.23;95262.92;1690849;84;21402;-59
2021/06/04 02:17:40;;;;;;;12.45;7.83;;;;;;;12.01;79.26;95258.16;1691169;84;20953;-61
2021/06/04 02:20:23;;;;;;;22.85;8.80;;;;;;;12.05;79.22;95264.36;1691434;83;21124;-59
2021/06/04 02:23:30;;;;;;;29.07;9.23;;;;;;;12.13;79.10;95265.66;1690870;84;21488;-59
2021/06/04 02:26:16;;;;;;;23.90;7.90;;;;;;;12.16;79.03;95262.80;1691204;84;21002;-60
2021/06/04 02:29:26;;;;;;;12.80;7.65;;;;;;;12.23;78.67;95263.92;1691145;83;21477;-59
2021/06/04 02:32:00;;;;;;;10.72;6.97;;;;;;;12.21;78.58;95259.46;1691209;84;21025;-59
2021/06/04 02:34:37;;;;;;;15.65;7.22;;;;;;;12.17;78.49;95267.69;1691480;84;21395;-60
2021/06/04 02:37:13;;;;;;;20.02;8.13;;;;;;;12.13;78.76;95264.28;1691123;84;21018;-60
2021/06/04 02:40:02;;;;;;;13.98;6.97;;;;;;;12.14;78.78;95267.98;1691116;84;20977;-60
2021/06/04 02:42:42;;;;;;;12.00;7.60;;;;;;;12.14;78.94;95267.20;1691317;84;20962;-60
2021/06/04 02:45:27;;;;;;;14.80;8.50;;;;;;;12.18;78.73;95274.74;1690599;84;21067;-59
2021/06/04 02:47:59;;;;;;;10.45;6.30;;;;;;;12.12;78.71;95270.39;1691375;84;21128;-60
2021/06/04 02:50:30;;;;;;;;;;;;;;;12.06;78.84;95277.69;1668122;84;21462;-60
2021/06/04 02:53:34;;;;;;;8.35;5.55;;;;;;;12.02;78.95;95274.28;1684562;84;20430;-60
2021/06/04 02:56:20;;;;;;;8.43;5.12;;;;;;;11.98;78.91;95275.01;1683028;85;20967;-59
2021/06/04 02:59:04;;;;;;;9.80;5.37;;;;;;;11.97;78.92;95272.09;1683285;85;21018;-60
2021/06/04 03:01:33;;;;;;;16.42;7.50;;;;;;;12.01;78.89;95274.71;1682923;84;21831;-60
2021/06/04 03:04:01;;;;;;;14.50;7.62;;;;;;;12.06;78.78;95281.06;1683197;85;21478;-60
2021/06/04 03:06:40;;;;;;;11.60;6.75;;;;;;;12.07;78.99;95264.06;1682922;85;21430;-60
2021/06/04 03:09:11;;;;;;;6.58;5.70;;;;;;;12.08;79.01;95266.98;1683128;85;21002;-61
2021/06/04 03:11:39;;;;;;;11.78;6.50;;;;;;;12.10;78.91;95265.92;1682885;84;20969;-60
2021/06/04 03:14:08;;;;;;;19.27;8.53;;;;;;;12.08;78.90;95279.39;1664260;85;21127;-60
2021/06/04 03:16:35;;;;;;;16.65;9.40;;;;;;;12.05;79.08;95277.52;1682835;85;21006;-60
2021/06/04 03:19:06;;;;;;;29.23;9.55;;;;;;;11.97;79.32;95276.23;1664263;85;21588;-59
2021/06/04 03:21:55;;;;;;;21.27;9.40;;;;;;;11.94;79.45;95272.95;1683270;85;21485;-60
2021/06/04 03:24:29;;;;;;;26.00;10.05;;;;;;;11.98;79.72;95279.73;1683294;84;20997;-59
2021/06/04 03:26:57;;;;;;;19.52;9.23;;;;;;;12.02;79.83;95267.98;1682944;84;21768;-60
2021/06/04 03:29:26;;;;;;;19.07;8.50;;;;;;;12.02;79.89;95260.48;1683144;85;21021;-60
2021/06/04 03:31:59;;;;;;;17.95;6.58;;;;;;;12.08;80.01;95271.12;1682905;85;20974;-61
2021/06/04 03:34:28;;;;;;;11.63;6.33;;;;;;;12.17;79.92;95268.47;1683129;85;21023;-61
2021/06/04 03:36:57;;;;;;;12.78;7.12;;;;;;;12.26;79.55;95269.92;1663921;85;21070;-61
2021/06/04 03:39:33;;;;;;;12.18;6.75;;;;;;;12.33;79.13;95268.92;1683230;85;21113;-61
2021/06/04 03:42:00;;;;;;;16.50;7.87;;;;;;;12.35;78.99;95272.78;1682920;85;21013;-60
2021/06/04 03:44:31;;;;;;;14.43;6.58;;;;;;;12.36;78.87;95274.33;1682990;84;21002;-61
2021/06/04 03:46:57;;;;;;;12.30;6.75;;;;;;;12.38;78.75;95273.27;1682867;84;21525;-60
2021/06/04 03:49:26;;;;;;;11.55;6.53;;;;;;;12.43;78.46;95271.32;1683129;85;20993;-60
2021/06/04 03:51:54;;;;;;;13.98;5.78;;;;;;;12.43;78.39;95270.56;1682766;85;21151;-61
2021/06/04 03:54:26;;;;;;;27.48;9.70;;;;;;;12.42;78.14;95276.67;1682926;85;20998;-61
2021/06/04 03:56:53;;;;;;;20.90;9.35;;;;;;;12.37;78.48;95277.25;1682997;85;21049;-59
2021/06/04 03:59:20;;;;;;;22.73;9.95;;;;;;;12.36;78.66;95272.95;1682939;85;21010;-59
2021/06/04 04:01:53;;;;;;;29.80;9.50;;;;;;;12.36;78.66;95276.30;1683026;85;21006;-61
2021/06/04 04:04:20;;;;;;;20.25;9.03;;;;;;;12.34;78.89;95280.12;1682989;85;21076;-61
2021/06/04 04:06:47;;;;;;;17.65;7.85;;;;;;;12.34;79.19;95277.36;1682864;85;21010;-64
2021/06/04 04:09:15;;;;;;;16.02;7.30;;;;;;;12.34;79.23;95285.05;1664316;85;20994;-61
2021/06/04 04:11:46;;;;;;;13.55;8.05;;;;;;;12.35;79.31;95281.06;1682859;85;21033;-61
2021/06/04 04:14:14;;;;;;;7.62;6.78;;;;;;;12.36;79.37;95281.23;1682863;85;20998;-60
2021/06/04 04:16:42;;;;;;;10.72;7.08;;;;;;;12.38;79.32;95282.93;1682953;85;21179;-61
2021/06/04 04:19:10;;;;;;;18.77;8.68;;;;;;;12.44;79.15;95278.38;1682892;85;21427;-61
2021/06/04 04:21:38;;;;;;;17.17;9.88;;;;;;;12.48;79.00;95280.41;1682963;85;21039;-60
2021/06/04 04:24:13;;;;;;;16.52;9.35;;;;;;;12.45;79.02;95282.68;1683383;85;21030;-60
2021/06/04 04:26:41;;;;;;;14.07;9.88;;;;;;;12.43;78.98;95285.12;1682848;85;21453;-61
2021/06/04 04:29:08;;;;;;;18.05;8.88;;;;;;;12.43;79.01;95292.02;1682945;84;21489;-61
2021/06/04 04:31:38;;;;;;;21.97;10.82;;;;;;;12.43;79.00;95289.25;1682934;85;20990;-60
2021/06/04 04:34:06;;;;;;;37.28;12.23;;;;;;;12.50;78.97;95291.80;1683366;85;21024;-60
2021/06/04 04:36:40;;;;;;;24.23;11.78;;;;;;;12.62;78.56;95284.84;1683099;85;20966;-61
2021/06/04 04:39:11;;;;;;;27.07;13.10;;;;;;;12.76;78.23;95289.09;1682929;85;20986;-61
2021/06/04 04:41:37;;;;;;;19.87;9.33;;;;;;;12.89;77.71;95283.68;1683395;85;21100;-58
2021/06/04 04:44:05;;;;;;;10.85;9.15;;;;;;;13.00;77.33;95279.19;1683007;85;20985;-55
2021/06/04 04:46:34;;;;;;;26.68;11.30;;;;;;;13.08;76.89;95281.87;1682974;85;20982;-55
2021/06/04 04:49:01;;;;;;;26.12;10.80;;;;;;;13.15;76.70;95289.29;1683062;85;20970;-56
2021/06/04 04:51:28;;;;;;;21.60;10.70;;;;;;;13.25;76.42;95282.59;1683131;85;21526;-56
2021/06/04 04:53:55;;;;;;;45.95;14.40;;;;;;;13.38;75.95;95290.80;1690401;83;21194;-59
2021/06/04 04:56:21;;;;;;;21.55;12.40;;;;;;;13.50;75.75;95291.34;1691064;84;21487;-58
2021/06/04 04:58:48;;;;;;;89.03;15.63;;;;;;;13.61;75.01;95285.56;1691226;84;21028;-59
2021/06/04 05:01:17;;;;;;;29.05;10.13;;;;;;;13.68;74.61;95290.84;1691250;84;21560;-60
2021/06/04 05:03:44;;;;;;;16.93;9.65;;;;;;;13.74;73.83;95292.38;1691222;84;21096;-61
2021/06/04 05:06:11;;;;;;;13.38;8.68;;;;;;;13.80;73.28;95284.42;1691248;83;21461;-60
2021/06/04 05:08:39;;;;;;;14.23;8.20;;;;;;;13.92;73.09;95284.94;1691106;84;21065;-61
2021/06/04 05:11:07;;;;;;;31.17;9.15;;;;;;;14.03;72.30;95293.57;1691261;84;21005;-64
2021/06/04 05:13:35;;;;;;;27.65;9.80;;;;;;;14.08;71.73;95296.36;1691097;83;21032;-61
2021/06/04 05:16:04;;;;;;;14.70;7.78;;;;;;;14.11;71.75;95285.76;1691247;84;20930;-60
2021/06/04 05:18:33;;;;;;;13.53;8.35;;;;;;;14.19;71.54;95290.58;1691490;84;21748;-61
2021/06/04 05:20:59;;;;;;;16.95;7.62;;;;;;;14.30;71.45;95290.94;1691025;84;21006;-60
2021/06/04 05:23:26;;;;;;;13.48;7.70;;;;;;;14.36;70.94;95295.26;1691352;84;21069;-61
2021/06/04 05:25:54;;;;;;;11.35;8.03;;;;;;;14.43;71.12;95294.95;1691290;84;21434;-63
2021/06/04 05:28:23;;;;;;;10.85;7.62;;;;;;;14.48;70.75;95298.65;1691158;83;20938;-64
2021/06/04 05:30:53;;;;;;;14.85;7.75;;;;;;;14.55;70.53;95298.37;1691398;84;21164;-62
2021/06/04 05:33:23;;;;;;;12.65;7.20;;;;;;;14.57;70.52;95291.75;1691354;84;20933;-64
2021/06/04 05:35:51;;;;;;;14.05;6.72;;;;;;;14.66;70.34;95304.84;1691139;84;20973;-62
2021/06/04 05:38:18;;;;;;;9.98;6.75;;;;;;;14.73;70.24;95301.16;1691144;84;21438;-61
2021/06/04 05:40:48;;;;;;;13.38;7.92;;;;;;;14.76;70.16;95300.84;1691154;84;21030;-63
2021/06/04 05:43:18;;;;;;;15.78;8.33;;;;;;;14.77;69.62;95302.38;1691320;84;21125;-62
2021/06/04 05:45:45;;;;;;;15.88;10.30;;;;;;;14.83;69.54;95296.41;1691136;84;21021;-63
2021/06/04 05:48:14;;;;;;;15.55;9.70;;;;;;;14.92;69.67;95304.11;1689195;84;21064;-62
2021/06/04 05:50:44;;;;;;;16.07;9.10;;;;;;;14.96;69.51;95308.88;1690765;82;21018;-62
2021/06/04 05:53:12;;;;;;;18.82;10.35;;;;;;;15.00;69.19;95308.72;1723815;81;21096;-60
2021/06/04 05:55:39;;;;;;;15.68;7.83;;;;;;;15.03;69.42;95315.48;1726276;81;21336;-60
2021/06/04 05:58:10;;;;;;;9.60;6.58;;;;;;;15.10;69.33;95315.19;1736566;81;21627;-60
2021/06/04 06:00:42;;;;;;;12.05;6.83;;;;;;;15.15;68.89;95318.72;1718107;81;21119;-64
2021/06/04 06:03:13;;;;;;;10.32;6.58;;;;;;;15.21;68.74;95323.79;1718054;81;21042;-64
2021/06/04 06:05:40;;;;;;;7.78;5.90;;;;;;;15.26;68.46;95317.66;1700659;81;21942;-60
2021/06/04 06:08:09;;;;;;;13.18;6.20;;;;;;;15.30;68.46;95321.06;1699796;81;21147;-60
2021/06/04 06:10:36;;;;;;;11.20;6.33;;;;;;;15.32;68.29;95315.06;1732337;81;21006;-61
2021/06/04 06:13:03;;;;;;;12.05;6.42;;;;;;;15.35;68.31;95319.68;1723845;81;21101;-58
2021/06/04 06:15:30;;;;;;;10.23;5.67;;;;;;;15.42;68.00;95317.36;1723103;81;21025;-63
2021/06/04 06:17:59;;;;;;;13.55;8.90;;;;;;;15.48;67.65;95317.48;1717968;81;21071;-68
2021/06/04 06:20:31;;;;;;;10.80;6.28;;;;;;;15.52;67.10;95321.64;1714292;81;21843;-66
2021/06/04 06:22:57;;;;;;;8.55;5.90;;;;;;;15.55;67.14;95322.09;1715018;81;21048;-62
2021/06/04 06:25:32;;;;;;;11.43;6.03;;;;;;;15.61;66.60;95325.80;1722154;81;21537;-59
2021/06/04 06:28:00;;;;;;;10.35;5.70;;;;;;;15.68;67.11;95324.08;1652917;85;21065;-61
2021/06/04 06:30:28;;;;;;;10.90;5.47;;;;;;;15.79;66.35;95320.21;1716864;81;21495;-62
2021/06/04 06:32:55;;;;;;;10.55;6.67;;;;;;;15.92;66.56;95330.48;1719943;82;21211;-61
2021/06/04 06:35:40;;;;;;;15.03;6.58;;;;;;;16.03;65.29;95327.99;1690478;82;21681;-61
2021/06/04 06:38:08;;;;;;;9.40;5.90;;;;;;;16.11;64.77;95329.18;1718312;81;21379;-60
2021/06/04 06:40:36;;;;;;;7.58;6.08;;;;;;;16.26;64.39;95330.69;1719244;83;21035;-56
2021/06/04 06:43:03;;;;;;;13.25;5.95;;;;;;;16.35;63.48;95328.03;1720221;81;21526;-61
2021/06/04 06:45:30;;;;;;;11.48;6.95;;;;;;;16.44;63.05;95328.00;1721973;82;21917;-61
2021/06/04 06:47:56;;;;;;;13.20;5.83;;;;;;;16.55;62.68;95330.27;1718832;82;22351;-54
2021/06/04 06:50:25;;;;;;;23.00;7.62;;;;;;;16.63;61.79;95332.83;1722728;81;21040;-57
2021/06/04 06:52:51;;;;;;;10.75;6.92;;;;;;;16.70;61.55;95331.11;1717783;82;21504;-59
2021/06/04 06:55:18;;;;;;;23.70;7.33;;;;;;;16.81;62.27;95328.55;1701753;82;21077;-60
2021/06/04 06:57:45;;;;;;;23.75;8.20;;;;;;;16.94;62.53;95332.62;1716297;82;21136;-61
2021/06/04 07:00:18;;;;;;;19.00;8.40;;;;;;;17.07;62.33;95327.59;1709893;82;21033;-59
2021/06/04 07:02:45;;;;;;;22.17;7.40;;;;;;;17.23;61.57;95336.11;1708356;82;21018;-61
2021/06/04 07:05:13;;;;;;;31.42;9.08;;;;;;;17.34;60.62;95326.64;1715000;82;21051;-62
2021/06/04 07:07:40;;;;;;;21.40;7.15;;;;;;;17.43;60.06;95329.36;1708431;82;21048;-58
2021/06/04 07:10:09;;;;;;;11.40;7.53;;;;;;;17.52;59.31;95330.66;1699603;82;21202;-58
2021/06/04 07:12:37;;;;;;;20.70;7.10;;;;;;;17.61;58.65;95325.02;1711206;82;21042;-58
2021/06/04 07:15:11;;;;;;;11.63;6.10;;;;;;;17.69;58.10;95326.16;1714561;82;21005;-62
2021/06/04 07:17:39;;;;;;;15.15;6.83;;;;;;;17.77;57.21;95325.91;1712121;82;21410;-61
2021/06/04 07:20:08;;;;;;;17.30;6.25;;;;;;;17.81;57.00;95327.27;1711038;82;21051;-63
2021/06/04 07:22:35;;;;;;;15.58;6.70;;;;;;;17.89;56.39;95329.83;1710066;82;21265;-62
2021/06/04 07:25:06;;;;;;;24.55;8.50;;;;;;;17.97;55.98;95321.86;1702984;82;20986;-63
2021/06/04 07:27:33;;;;;;;13.95;6.33;;;;;;;18.00;56.06;95328.61;1701158;83;21053;-62
2021/06/04 07:30:00;;;;;;;16.15;6.10;;;;;;;18.02;55.34;95319.14;1714479;83;21009;-62
2021/06/04 07:32:29;;;;;;;13.80;5.60;;;;;;;18.09;55.44;95322.95;1706131;82;21168;-64
2021/06/04 07:34:56;;;;;;;9.38;5.55;;;;;;;18.19;55.23;95315.40;1711767;82;21147;-64
2021/06/04 07:37:23;;;;;;;8.08;5.42;;;;;;;18.26;53.78;95317.78;1711418;82;20962;-62
2021/06/04 07:39:50;;;;;;;8.40;4.67;;;;;;;18.33;54.09;95318.83;1702565;82;22210;-60
2021/06/04 07:42:16;;;;;;;18.30;6.22;;;;;;;18.44;52.99;95320.37;1698647;82;21036;-60
2021/06/04 07:44:44;;;;;;;13.48;4.97;;;;;;;18.55;53.11;95322.55;1712197;82;22430;-63
2021/06/04 07:47:13;;;;;;;11.55;4.90;;;;;;;18.69;52.01;95318.34;1710564;82;21142;-66
2021/06/04 07:49:41;;;;;;;21.93;6.12;;;;;;;18.83;52.12;95317.50;1716285;82;21002;-61
2021/06/04 07:52:07;;;;;;;10.88;7.62;;;;;;;19.03;52.71;95314.72;1713602;82;21050;-61
2021/06/04 07:54:34;;;;;;;15.18;10.10;;;;;;;19.23;51.95;95314.74;1715782;82;21037;-60
2021/06/04 07:57:03;;;;;;;10.03;4.78;;;;;;;19.39;48.70;95308.59;1716742;82;21024;-57
2021/06/04 07:59:30;;;;;;;21.60;4.55;;;;;;;19.46;47.21;95315.16;1708462;82;21225;-58
2021/06/04 08:01:58;;;;;;;3.77;3.20;;;;;;;19.50;47.65;95312.91;1713883;82;21001;-58
2021/06/04 08:04:25;;;;;;;7.30;3.70;;;;;;;19.58;46.82;95314.65;1713434;82;21069;-56
2021/06/04 08:06:52;;;;;;;7.67;3.67;;;;;;;19.64;46.59;95312.67;1705091;82;21591;-60
2021/06/04 08:09:20;;;;;;;7.70;3.90;;;;;;;19.76;46.37;95310.14;1710490;82;21070;-61
2021/06/04 08:11:53;;;;;;;16.73;3.98;;;;;;;19.88;46.04;95313.16;1710491;82;21160;-57
2021/06/04 08:14:25;;;;;;;5.28;4.17;;;;;;;19.96;46.22;95322.00;1713344;82;21169;-59
2021/06/04 08:16:54;;;;;;;8.55;4.92;;;;;;;20.08;46.04;95317.33;1702235;82;21141;-62
2021/06/04 08:19:22;;;;;;;9.83;4.42;;;;;;;20.22;47.35;95317.95;1709460;82;21027;-56
2021/06/04 08:21:52;;;;;;;5.87;3.60;;;;;;;20.37;45.56;95305.25;1706613;82;21106;-57
2021/06/04 08:24:22;;;;;;;6.95;3.10;;;;;;;20.43;44.17;95314.44;1701161;82;21104;-61
2021/06/04 08:26:50;;;;;;;5.92;4.28;;;;;;;20.47;42.90;95314.34;1712539;82;21329;-57
2021/06/04 08:29:16;;;;;;;4.97;3.47;;;;;;;20.53;41.69;95310.95;1709915;82;21041;-57
2021/06/04 08:31:43;;;;;;;5.35;2.87;;;;;;;20.61;41.79;95306.45;1711399;83;21451;-59
2021/06/04 08:34:11;;;;;;;14.53;3.83;;;;;;;20.69;42.00;95312.31;1708619;83;22544;-58
2021/06/04 08:36:40;;;;;;;7.62;3.58;;;;;;;20.77;42.25;95317.59;1710133;82;21914;-62
2021/06/04 08:39:16;;;;;;;6.12;3.22;;;;;;;20.78;42.10;95320.52;1712163;82;20999;-64
2021/06/04 08:42:06;;;;;;;6.62;3.27;;;;;;;20.70;42.44;95318.82;1701231;82;21461;-63
2021/06/04 08:45:01;;;;;;;4.00;2.90;;;;;;;20.64;43.59;95328.43;1668508;85;21021;-62
2021/06/04 08:47:31;;;;;;;5.67;2.58;;;;;;;20.52;41.60;95316.41;1710054;82;21043;-58
2021/06/04 08:50:14;;;;;;;7.47;3.50;;;;;;;20.44;41.78;95315.34;1698665;82;21098;-57
2021/06/04 08:53:06;;;;;;;9.70;3.58;;;;;;;20.49;41.56;95321.60;1702505;82;21414;-58
2021/06/04 08:55:40;;;;;;;11.85;4.37;;;;;;;20.47;42.42;95314.97;1705787;83;21115;-59
2021/06/04 08:58:48;;;;;;;12.82;5.00;;;;;;;20.46;43.48;95314.83;1716384;82;21045;-59
2021/06/04 09:01:50;;;;;;;4.78;4.08;;;;;;;20.45;43.65;95311.91;1704485;82;21060;-63
2021/06/04 09:04:43;;;;;;;10.38;5.03;;;;;;;20.44;43.06;95313.17;1664234;83;21158;-64
2021/06/04 09:07:18;;;;;;;7.67;4.15;;;;;;;20.44;43.72;95315.97;1707347;82;21144;-62
2021/06/04 09:09:50;;;;;;;14.00;4.47;;;;;;;20.48;43.66;95310.91;1702012;82;21368;-62
2021/06/04 09:12:23;;;;;;;11.50;4.12;;;;;;;20.55;42.85;95307.67;1702936;82;20962;-61
2021/06/04 09:14:53;;;;;;;12.35;3.75;;;;;;;20.53;41.80;95304.61;1702330;82;20966;-59
2021/06/04 09:17:46;;;;;;;6.60;3.42;;;;;;;20.47;41.61;95302.38;1676068;83;21840;-60
2021/06/04 09:20:34;;;;;;;6.83;3.42;;;;;;;20.41;41.38;95301.59;1656873;85;21070;-62
2021/06/04 09:23:03;;;;;;;3.25;2.92;;;;;;;20.44;41.90;95301.98;1728847;82;21070;-63
2021/06/04 09:25:32;;;;;;;6.67;3.60;;;;;;;20.55;41.85;95293.69;1693856;83;21032;-61
2021/06/04 09:28:18;;;;;;;7.37;3.65;;;;;;;20.59;42.02;95293.57;1717953;82;21434;-63
2021/06/04 09:30:49;;;;;;;9.75;3.87;;;;;;;20.56;41.94;95291.03;1713898;82;21155;-55
2021/06/04 09:33:24;;;;;;;7.28;3.08;;;;;;;20.49;42.11;95288.67;1716034;82;21005;-55
2021/06/04 09:36:18;;;;;;;8.48;3.58;;;;;;;20.47;41.22;95282.81;1667374;85;21109;-56
2021/06/04 09:39:04;;;;;;;13.98;4.53;;;;;;;20.44;41.68;95282.42;1659718;85;21053;-57
2021/06/04 09:41:44;;;;;;;8.80;3.58;;;;;;;20.32;42.24;95287.78;1666743;84;21148;-58
2021/06/04 09:44:22;;;;;;;10.58;4.65;;;;;;;20.26;42.52;95280.78;1661795;85;22336;-55
2021/06/04 09:47:13;;;;;;;13.55;7.42;;;;;;;20.23;41.86;95287.34;1719930;82;20975;-56
2021/06/04 09:49:48;;;;;;;18.02;3.83;;;;;;;20.18;43.08;95283.87;1706831;82;21242;-58
2021/06/04 09:52:30;;;;;;;16.95;5.35;;;;;;;20.17;42.49;95287.19;1714000;82;21057;-56
2021/06/04 09:55:08;;;;;;;13.03;4.60;;;;;;;20.16;42.35;95284.27;1703882;82;20991;-58
2021/06/04 09:57:35;;;;;;;17.55;4.58;;;;;;;20.19;43.44;95284.66;1703124;82;21139;-57
2021/06/04 10:00:22;;;;;;;8.55;4.40;;;;;;;20.24;42.52;95285.33;1705386;83;21144;-56
2021/06/04 10:02:49;;;;;;;12.82;3.98;;;;;;;20.28;42.49;95280.27;1627086;87;21017;-58
2021/06/04 10:05:21;;;;;;;13.53;4.10;;;;;;;20.28;41.82;95285.86;1706480;83;21472;-57
2021/06/04 10:08:02;;;;;;;12.95;4.33;;;;;;;20.25;41.75;95277.86;1742483;82;20986;-55
2021/06/04 10:10:34;;;;;;;9.63;3.30;;;;;;;20.24;41.04;95279.73;1703970;82;20946;-57
2021/06/04 10:13:03;;;;;;;8.50;3.70;;;;;;;20.19;41.03;95279.07;1699478;83;21029;-56
2021/06/04 10:15:45;;;;;;;9.68;3.50;;;;;;;20.17;40.57;95287.19;1710018;83;21041;-55
2021/06/04 10:18:35;;;;;;;15.75;3.90;;;;;;;20.13;40.81;95276.23;1679328;85;21072;-60
2021/06/04 10:21:35;;;;;;;9.40;3.92;;;;;;;20.12;40.84;95276.71;1716337;82;21093;-58
2021/06/04 10:24:01;;;;;;;12.85;4.17;;;;;;;20.13;40.42;95276.09;1709638;83;21135;-59
2021/06/04 10:26:36;;;;;;;13.35;3.98;;;;;;;20.12;40.25;95273.91;1674046;85;21070;-58
2021/06/04 10:29:13;;;;;;;11.08;3.52;;;;;;;20.09;40.35;95265.78;1693931;83;21023;-57
2021/06/04 10:32:02;;;;;;;12.25;4.20;;;;;;;20.10;40.32;95264.52;1712311;83;21005;-58
2021/06/04 10:34:47;;;;;;;6.42;3.60;;;;;;;20.15;40.11;95269.51;1703130;82;22189;-61
2021/06/04 10:37:25;;;;;;;10.40;4.10;;;;;;;20.24;39.60;95272.75;1701551;83;21143;-61
2021/06/04 10:40:02;;;;;;;7.58;3.40;;;;;;;20.30;39.36;95273.55;1707756;84;21537;-60
2021/06/04 10:42:37;;;;;;;8.60;3.47;;;;;;;20.35;38.82;95265.85;1655950;84;21080;-56
2021/06/04 10:45:20;;;;;;;10.58;3.40;;;;;;;20.41;38.23;95269.45;1711708;83;21010;-60
2021/06/04 10:48:38;;;;;;;4.37;3.10;;;;;;;20.48;38.05;95271.77;1710596;83;20997;-57
2021/06/04 10:51:30;;;;;;;10.78;2.75;;;;;;;20.50;36.33;95265.04;1701519;83;21187;-59
2021/06/04 10:54:19;;;;;;;10.38;3.12;;;;;;;20.51;36.49;95274.95;1701443;83;21493;-58
2021/06/04 10:57:13;;;;;;;4.15;2.50;;;;;;;20.55;37.27;95267.87;1726671;83;20978;-59
2021/06/04 10:59:56;;;;;;;7.05;2.80;;;;;;;20.62;38.17;95273.64;1718975;82;20980;-56
2021/06/04 11:02:56;;;;;;;12.10;5.95;;;;;;;20.63;37.39;95273.77;1707405;81;21054;-56
2021/06/04 11:05:49;;;;;;;5.08;3.30;;;;;;;20.63;36.27;95275.95;1716380;82;21154;-56
2021/06/04 11:08:41;;;;;;;4.50;3.17;;;;;;;20.62;36.51;95279.23;1721277;83;21067;-56
2021/06/04 11:11:27;;;;;;;5.87;3.05;;;;;;;20.61;36.29;95277.09;1718774;83;21450;-57
2021/06/04 11:14:40;;;;;;;6.50;2.75;;;;;;;20.68;37.91;95277.23;1718545;81;21630;-56
2021/06/04 11:17:36;;;;;;;4.78;2.40;;;;;;;20.68;36.16;95278.00;1706220;81;20996;-58
2021/06/04 11:20:12;;;;;;;11.25;4.90;;;;;;;20.72;37.47;95282.72;1729509;81;21326;-61
2021/06/04 11:23:12;;;;;;;3.50;2.72;;;;;;;20.74;37.24;95285.03;1692751;83;20995;-55
2021/06/04 11:25:52;;;;;;;5.87;2.60;;;;;;;20.76;35.78;95283.90;1721148;81;21060;-57
2021/06/04 11:28:28;;;;;;;4.65;2.20;;;;;;;20.78;36.65;95275.77;1719354;81;20971;-57
2021/06/04 11:30:57;;;;;;;5.22;2.30;;;;;;;20.84;36.58;95273.17;1711302;83;21016;-62
2021/06/04 11:33:31;;;;;;;2.95;2.10;;;;;;;20.86;35.83;95276.23;1723085;81;21162;-60
2021/06/04 11:36:19;;;;;;;7.35;2.60;;;;;;;21.02;36.90;95270.57;1700263;83;21100;-58
2021/06/04 11:38:53;;;;;;;4.65;2.50;;;;;;;21.22;35.24;95268.99;1723359;82;21054;-57
2021/06/04 11:41:47;;;;;;;7.80;2.52;;;;;;;21.50;35.21;95265.66;1732048;81;21142;-59
2021/06/04 11:44:34;;;;;;;5.22;2.58;;;;;;;21.87;35.30;95255.05;1723600;83;21042;-56
2021/06/04 11:47:22;;;;;;;7.92;3.12;;;;;;;22.32;34.67;95260.91;1723945;83;21204;-58
2021/06/04 11:49:59;;;;;;;12.35;3.58;;;;;;;22.64;34.21;95259.37;1725867;82;21014;-59
2021/06/04 11:52:40;;;;;;;11.00;3.22;;;;;;;22.75;33.18;95260.76;1724657;82;21048;-56
2021/06/04 11:55:29;;;;;;;9.23;2.42;;;;;;;22.74;33.32;95261.26;1707302;83;21101;-56
2021/06/04 11:58:30;;;;;;;2.65;2.20;;;;;;;22.82;33.70;95256.01;1746623;81;21096;-58
2021/06/04 12:01:24;;;;;;;3.85;2.30;;;;;;;22.97;33.41;95262.09;1730216;81;21959;-57